TimeCST,TemperatureF,Dew PointF,Humidity,Sea Level PressureIn,VisibilityMPH,Wind Direction,Wind SpeedMPH,Gust SpeedMPH,PrecipitationIn,Events,Conditions,WindDirDegrees,DateUTC
12:15 AM,55.4,39.2,54,30.00,10.0,SSW,4.6,-,N/A,,Overcast,210,2013-03-05 06:15:00
1:35 AM,53.6,42.8,67,29.98,10.0,SSW,5.8,-,N/A,,Mostly Cloudy,200,2013-03-05 07:35:00
1:55 AM,53.6,44.6,72,29.97,10.0,SW,8.1,-,N/A,,Overcast,220,2013-03-05 07:55:00
2:15 AM,53.6,44.6,72,29.97,10.0,South,6.9,-,N/A,,Overcast,190,2013-03-05 08:15:00
2:35 AM,53.6,44.6,72,29.97,10.0,SSW,4.6,-,N/A,,Overcast,210,2013-03-05 08:35:00
2:55 AM,53.6,44.6,72,29.96,10.0,SSW,8.1,-,N/A,,Overcast,210,2013-03-05 08:55:00
3:15 AM,53.6,44.6,72,29.95,10.0,South,8.1,16.1,N/A,,Overcast,180,2013-03-05 09:15:00
3:35 AM,53.6,44.6,72,29.95,10.0,SSW,5.8,-,N/A,,Overcast,200,2013-03-05 09:35:00
3:55 AM,53.6,46.4,77,29.96,10.0,South,5.8,-,N/A,,Overcast,190,2013-03-05 09:55:00
4:15 AM,53.6,46.4,77,29.96,10.0,SSW,8.1,-,N/A,,Overcast,200,2013-03-05 10:15:00
4:35 AM,53.6,46.4,77,29.96,10.0,South,6.9,-,N/A,,Overcast,190,2013-03-05 10:35:00
4:55 AM,53.6,46.4,77,29.96,10.0,SW,8.1,-,N/A,,Mostly Cloudy,220,2013-03-05 10:55:00
5:15 AM,53.6,46.4,77,29.96,10.0,SSW,6.9,-,N/A,,Overcast,200,2013-03-05 11:15:00
5:35 AM,53.6,46.4,77,29.96,10.0,SSW,5.8,-,N/A,,Overcast,210,2013-03-05 11:35:00
5:55 AM,53.6,46.4,77,29.96,10.0,SSW,9.2,-,N/A,,Overcast,210,2013-03-05 11:55:00
6:15 AM,53.6,46.4,77,29.96,10.0,SSW,6.9,-,N/A,,Overcast,200,2013-03-05 12:15:00
6:35 AM,53.6,46.4,77,29.95,10.0,SSW,6.9,-,N/A,,Overcast,210,2013-03-05 12:35:00
7:35 AM,55.4,46.4,72,29.95,10.0,SW,11.5,18.4,N/A,,Overcast,220,2013-03-05 13:35:00
7:55 AM,55.4,46.4,72,29.95,10.0,SSW,6.9,-,N/A,,Mostly Cloudy,210,2013-03-05 13:55:00
8:15 AM,55.4,48.2,77,29.93,10.0,SSW,5.8,-,N/A,,Mostly Cloudy,210,2013-03-05 14:15:00
8:35 AM,57.2,48.2,72,29.92,10.0,SSW,11.5,16.1,N/A,,Mostly Cloudy,210,2013-03-05 14:35:00
8:55 AM,57.2,48.2,72,29.92,10.0,SSW,8.1,19.6,N/A,,Overcast,210,2013-03-05 14:55:00
9:15 AM,59.0,48.2,67,29.91,10.0,SW,9.2,18.4,N/A,,Overcast,220,2013-03-05 15:15:00
9:35 AM,59.0,48.2,67,29.90,10.0,SSW,9.2,16.1,N/A,,Overcast,200,2013-03-05 15:35:00
9:55 AM,59.0,48.2,67,29.89,10.0,SW,8.1,17.3,N/A,,Overcast,220,2013-03-05 15:55:00
10:15 AM,60.8,50.0,68,29.88,10.0,SSW,9.2,18.4,N/A,,Overcast,210,2013-03-05 16:15:00
10:35 AM,59.0,50.0,72,29.87,10.0,SW,8.1,-,N/A,,Overcast,220,2013-03-05 16:35:00
10:55 AM,57.2,51.8,82,29.86,10.0,SW,6.9,-,N/A,,Overcast,220,2013-03-05 16:55:00
11:15 AM,59.0,51.8,77,29.85,10.0,SSW,5.8,-,N/A,,Overcast,210,2013-03-05 17:15:00
11:35 AM,60.8,51.8,72,29.82,10.0,South,8.1,-,N/A,,Overcast,180,2013-03-05 17:35:00
11:55 AM,62.6,51.8,68,29.79,10.0,SSW,9.2,19.6,N/A,,Overcast,200,2013-03-05 17:55:00
12:15 PM,62.6,53.6,72,29.76,10.0,SSW,10.4,17.3,N/A,,Overcast,210,2013-03-05 18:15:00
12:35 PM,64.4,53.6,68,29.76,10.0,SW,8.1,17.3,N/A,,Overcast,220,2013-03-05 18:35:00
12:55 PM,60.8,53.6,77,29.76,7.0,SW,9.2,18.4,0.02,,Overcast,230,2013-03-05 18:55:00
1:15 PM,60.8,55.4,82,29.74,10.0,SW,9.2,-,0.02,,Overcast,220,2013-03-05 19:15:00
1:35 PM,60.8,55.4,82,29.72,9.0,SSW,6.9,-,0.05,,Overcast,200,2013-03-05 19:35:00
1:55 PM,60.8,55.4,82,29.73,6.0,SW,12.7,18.4,0.21,Thunderstorm,Thunderstorm,230,2013-03-05 19:55:00
2:15 PM,60.8,53.6,77,29.77,10.0,West,17.3,32.2,0.15,,Overcast,280,2013-03-05 20:15:00
2:35 PM,60.8,53.6,77,29.77,10.0,West,19.6,24.2,0.15,,Mostly Cloudy,270,2013-03-05 20:35:00
2:55 PM,60.8,51.8,72,29.78,10.0,West,19.6,35.7,0.15,,Mostly Cloudy,270,2013-03-05 20:55:00
3:15 PM,57.2,48.2,72,29.81,10.0,WNW,13.8,39.1,N/A,,Mostly Cloudy,290,2013-03-05 21:15:00
3:35 PM,57.2,44.6,63,29.83,10.0,WNW,15.0,28.8,N/A,,Overcast,290,2013-03-05 21:35:00
3:55 PM,53.6,42.8,67,29.86,10.0,WNW,19.6,34.5,N/A,,Overcast,300,2013-03-05 21:55:00
4:15 PM,51.8,41.0,67,29.89,10.0,WNW,24.2,32.2,N/A,,Overcast,300,2013-03-05 22:15:00
4:35 PM,48.2,37.4,66,29.93,10.0,West,15.0,33.4,N/A,,Overcast,280,2013-03-05 22:35:00
4:55 PM,44.6,35.6,71,29.96,10.0,WNW,18.4,34.5,N/A,,Overcast,290,2013-03-05 22:55:00
5:15 PM,44.6,33.8,66,29.98,10.0,WNW,12.7,20.7,N/A,,Overcast,300,2013-03-05 23:15:00
5:35 PM,42.8,32.0,66,30.00,10.0,NW,17.3,26.5,N/A,,Overcast,310,2013-03-05 23:35:00
5:55 PM,42.8,30.2,61,30.02,10.0,WNW,15.0,29.9,N/A,,Overcast,290,2013-03-05 23:55:00
6:15 PM,41.0,30.2,65,30.03,10.0,WNW,16.1,32.2,N/A,,Overcast,290,2013-03-06 00:15:00
6:35 PM,41.0,30.2,65,30.04,10.0,NW,17.3,27.6,N/A,,Overcast,310,2013-03-06 00:35:00
6:55 PM,41.0,30.2,65,30.04,10.0,NW,11.5,21.9,N/A,,Overcast,310,2013-03-06 00:55:00
7:15 PM,41.0,28.4,61,30.04,10.0,NW,11.5,20.7,N/A,,Overcast,310,2013-03-06 01:15:00
7:35 PM,41.0,28.4,61,30.04,10.0,WNW,10.4,16.1,N/A,,Overcast,300,2013-03-06 01:35:00
7:55 PM,39.2,28.4,65,30.04,10.0,West,6.9,-,N/A,,Overcast,280,2013-03-06 01:55:00
8:15 PM,39.2,30.2,70,30.04,10.0,NW,5.8,-,N/A,,Overcast,310,2013-03-06 02:15:00
8:35 PM,39.2,30.2,70,30.03,10.0,West,6.9,-,N/A,,Mostly Cloudy,260,2013-03-06 02:35:00
8:55 PM,37.4,30.2,75,30.03,10.0,West,5.8,-,N/A,,Mostly Cloudy,260,2013-03-06 02:55:00
9:15 PM,37.4,30.2,75,30.03,10.0,West,5.8,-,N/A,,Partly Cloudy,260,2013-03-06 03:15:00
9:35 PM,35.6,30.2,81,30.03,10.0,WSW,5.8,-,N/A,,Clear,250,2013-03-06 03:35:00
9:55 PM,37.4,30.2,75,30.02,10.0,West,6.9,-,N/A,,Mostly Cloudy,260,2013-03-06 03:55:00
10:15 PM,39.2,30.2,70,30.02,10.0,West,10.4,-,N/A,,Mostly Cloudy,270,2013-03-06 04:15:00
10:35 PM,39.2,30.2,70,30.02,10.0,West,11.5,20.7,N/A,,Partly Cloudy,270,2013-03-06 04:35:00
10:55 PM,39.2,28.4,65,30.02,10.0,West,9.2,16.1,N/A,,Partly Cloudy,280,2013-03-06 04:55:00
11:15 PM,39.2,28.4,65,30.02,10.0,West,11.5,16.1,N/A,,Partly Cloudy,280,2013-03-06 05:15:00
11:35 PM,39.2,26.6,61,30.01,10.0,West,12.7,17.3,N/A,,Clear,280,2013-03-06 05:35:00
11:55 PM,39.2,26.6,61,30.01,10.0,West,12.7,17.3,N/A,,Clear,280,2013-03-06 05:55:00